NM93 weather

Roswell Regional Hospital Heliport
Roswell, New Mexico, United States

Public forecast

Using degrees Fahrenheit for public forecast. Weather courtesy of forecast.io.

Closest aviation weather report (METAR) to Roswell Regional Hospital Heliport

Closest report is Roswell International Air Center Airport, 6.9 nm (12.8 km) S. Retrieved 2020/01/28 21:51 UTC (44 minutes ago):

KROW 282151Z 35005KT 10SM CLR 15/M06 A3004 RMK AO2 SLP140 T01501056

Closest aviation forecast (TAF) to Roswell Regional Hospital Heliport

Closest forecast is Roswell International Air Center Airport, 6.9 nm (12.8 km) S. Retrieved 2020/01/28 18:42 UTC (4 hours ago):

TAF KROW 281739Z 2818/2918 35020G28KT P6SM SKC FM282300 36011KT P6SM SKC FM290200 VRB05KT P6SM SKC